sensor_id;sensor_type;location;lat;lon;timestamp;P1;durP1;ratioP1;P2;durP2;ratioP2
2784;SDS011;57944;48.722;9.316;2022-09-20T00:02:09;18.60;;;10.87;;
2784;SDS011;57944;48.722;9.316;2022-09-20T00:04:39;22.07;;;10.17;;
2784;SDS011;57944;48.722;9.316;2022-09-20T00:07:09;12.90;;;8.13;;
2784;SDS011;57944;48.722;9.316;2022-09-20T00:09:39;14.50;;;8.33;;
2784;SDS011;57944;48.722;9.316;2022-09-20T00:12:11;14.20;;;8.20;;
2784;SDS011;57944;48.722;9.316;2022-09-20T00:14:41;15.07;;;9.10;;
2784;SDS011;57944;48.722;9.316;2022-09-20T00:17:11;12.40;;;8.60;;
2784;SDS011;57944;48.722;9.316;2022-09-20T00:19:41;17.93;;;10.27;;
2784;SDS011;57944;48.722;9.316;2022-09-20T00:22:11;15.10;;;8.80;;
2784;SDS011;57944;48.722;9.316;2022-09-20T00:24:41;16.73;;;8.47;;
2784;SDS011;57944;48.722;9.316;2022-09-20T00:27:17;16.73;;;8.63;;
2784;SDS011;57944;48.722;9.316;2022-09-20T00:29:47;15.70;;;9.60;;
2784;SDS011;57944;48.722;9.316;2022-09-20T00:32:17;16.23;;;8.67;;
2784;SDS011;57944;48.722;9.316;2022-09-20T00:34:47;19.27;;;9.13;;
2784;SDS011;57944;48.722;9.316;2022-09-20T00:37:41;16.77;;;7.60;;
2784;SDS011;57944;48.722;9.316;2022-09-20T00:40:13;12.50;;;8.30;;
2784;SDS011;57944;48.722;9.316;2022-09-20T00:42:50;15.13;;;7.97;;
2784;SDS011;57944;48.722;9.316;2022-09-20T00:45:21;13.90;;;8.90;;
2784;SDS011;57944;48.722;9.316;2022-09-20T00:47:54;16.67;;;8.17;;
2784;SDS011;57944;48.722;9.316;2022-09-20T00:50:31;16.00;;;9.10;;
2784;SDS011;57944;48.722;9.316;2022-09-20T00:53:09;17.03;;;7.50;;
2784;SDS011;57944;48.722;9.316;2022-09-20T00:55:45;13.53;;;7.73;;
2784;SDS011;57944;48.722;9.316;2022-09-20T00:58:22;18.33;;;8.00;;
2784;SDS011;57944;48.722;9.316;2022-09-20T01:00:56;15.13;;;8.37;;
2784;SDS011;57944;48.722;9.316;2022-09-20T01:03:28;11.87;;;7.57;;
2784;SDS011;57944;48.722;9.316;2022-09-20T01:06:01;20.90;;;9.37;;
2784;SDS011;57944;48.722;9.316;2022-09-20T01:08:36;11.93;;;8.07;;
2784;SDS011;57944;48.722;9.316;2022-09-20T01:11:10;17.63;;;7.87;;
2784;SDS011;57944;48.722;9.316;2022-09-20T01:13:43;11.83;;;7.50;;
2784;SDS011;57944;48.722;9.316;2022-09-20T01:16:12;15.13;;;8.10;;
2784;SDS011;57944;48.722;9.316;2022-09-20T01:18:45;11.50;;;7.93;;
2784;SDS011;57944;48.722;9.316;2022-09-20T01:21:17;10.93;;;6.80;;
2784;SDS011;57944;48.722;9.316;2022-09-20T01:23:51;12.23;;;6.83;;
2784;SDS011;57944;48.722;9.316;2022-09-20T01:29:49;10.40;;;6.87;;
2784;SDS011;57944;48.722;9.316;2022-09-20T01:32:35;12.03;;;7.93;;
2784;SDS011;57944;48.722;9.316;2022-09-20T01:35:16;15.00;;;8.17;;
2784;SDS011;57944;48.722;9.316;2022-09-20T01:37:58;18.27;;;8.10;;
2784;SDS011;57944;48.722;9.316;2022-09-20T01:41:02;13.33;;;7.07;;
2784;SDS011;57944;48.722;9.316;2022-09-20T01:43:41;13.20;;;7.90;;
2784;SDS011;57944;48.722;9.316;2022-09-20T01:46:25;17.53;;;8.30;;
2784;SDS011;57944;48.722;9.316;2022-09-20T01:49:03;10.50;;;6.70;;
2784;SDS011;57944;48.722;9.316;2022-09-20T01:51:53;13.90;;;6.53;;
2784;SDS011;57944;48.722;9.316;2022-09-20T01:58:33;12.97;;;6.37;;
2784;SDS011;57944;48.722;9.316;2022-09-20T02:08:31;11.20;;;7.30;;
2784;SDS011;57944;48.722;9.316;2022-09-20T02:11:34;13.70;;;6.20;;
2784;SDS011;57944;48.722;9.316;2022-09-20T02:14:26;12.13;;;6.60;;
2784;SDS011;57944;48.722;9.316;2022-09-20T02:17:09;16.80;;;7.20;;
2784;SDS011;57944;48.722;9.316;2022-09-20T02:19:50;9.87;;;6.23;;
2784;SDS011;57944;48.722;9.316;2022-09-20T02:25:45;16.23;;;6.93;;
2784;SDS011;57944;48.722;9.316;2022-09-20T02:28:43;12.87;;;7.33;;
2784;SDS011;57944;48.722;9.316;2022-09-20T02:31:33;14.97;;;5.67;;
2784;SDS011;57944;48.722;9.316;2022-09-20T02:34:44;16.03;;;6.27;;
2784;SDS011;57944;48.722;9.316;2022-09-20T02:37:54;9.10;;;5.67;;
2784;SDS011;57944;48.722;9.316;2022-09-20T02:40:44;10.70;;;5.77;;
2784;SDS011;57944;48.722;9.316;2022-09-20T02:43:39;9.17;;;7.33;;
2784;SDS011;57944;48.722;9.316;2022-09-20T02:46:29;10.90;;;5.30;;
2784;SDS011;57944;48.722;9.316;2022-09-20T02:49:09;14.40;;;5.90;;
2784;SDS011;57944;48.722;9.316;2022-09-20T02:51:55;8.67;;;5.93;;
2784;SDS011;57944;48.722;9.316;2022-09-20T02:54:36;11.80;;;5.60;;
2784;SDS011;57944;48.722;9.316;2022-09-20T02:57:24;8.50;;;6.10;;
2784;SDS011;57944;48.722;9.316;2022-09-20T03:00:10;10.53;;;5.00;;
2784;SDS011;57944;48.722;9.316;2022-09-20T03:02:51;10.60;;;5.50;;
2784;SDS011;57944;48.722;9.316;2022-09-20T03:05:42;9.63;;;5.60;;
2784;SDS011;57944;48.722;9.316;2022-09-20T03:08:34;9.37;;;5.40;;
2784;SDS011;57944;48.722;9.316;2022-09-20T03:11:20;11.60;;;5.77;;
2784;SDS011;57944;48.722;9.316;2022-09-20T03:14:03;8.37;;;5.60;;
2784;SDS011;57944;48.722;9.316;2022-09-20T03:16:57;10.83;;;6.90;;
2784;SDS011;57944;48.722;9.316;2022-09-20T03:19:42;10.43;;;6.43;;
2784;SDS011;57944;48.722;9.316;2022-09-20T03:22:29;11.37;;;6.20;;
2784;SDS011;57944;48.722;9.316;2022-09-20T03:25:26;15.83;;;6.20;;
2784;SDS011;57944;48.722;9.316;2022-09-20T03:28:10;6.93;;;5.10;;
2784;SDS011;57944;48.722;9.316;2022-09-20T03:30:58;9.57;;;5.20;;
2784;SDS011;57944;48.722;9.316;2022-09-20T03:33:42;7.10;;;5.10;;
2784;SDS011;57944;48.722;9.316;2022-09-20T03:36:28;8.60;;;5.30;;
2784;SDS011;57944;48.722;9.316;2022-09-20T03:39:30;9.70;;;5.30;;
2784;SDS011;57944;48.722;9.316;2022-09-20T03:42:34;11.20;;;5.97;;
2784;SDS011;57944;48.722;9.316;2022-09-20T03:48:30;12.03;;;6.13;;
2784;SDS011;57944;48.722;9.316;2022-09-20T03:51:37;14.10;;;6.73;;
2784;SDS011;57944;48.722;9.316;2022-09-20T03:54:29;11.10;;;6.30;;
2784;SDS011;57944;48.722;9.316;2022-09-20T03:57:27;7.73;;;4.73;;
2784;SDS011;57944;48.722;9.316;2022-09-20T04:00:22;10.83;;;5.97;;
2784;SDS011;57944;48.722;9.316;2022-09-20T04:03:06;12.17;;;6.33;;
2784;SDS011;57944;48.722;9.316;2022-09-20T04:06:03;11.30;;;6.17;;
2784;SDS011;57944;48.722;9.316;2022-09-20T04:09:00;10.57;;;6.63;;
2784;SDS011;57944;48.722;9.316;2022-09-20T04:12:04;11.27;;;5.50;;
2784;SDS011;57944;48.722;9.316;2022-09-20T04:14:56;11.93;;;6.90;;
2784;SDS011;57944;48.722;9.316;2022-09-20T04:17:48;15.17;;;7.10;;
2784;SDS011;57944;48.722;9.316;2022-09-20T04:20:30;12.90;;;7.53;;
2784;SDS011;57944;48.722;9.316;2022-09-20T04:23:17;10.13;;;6.53;;
2784;SDS011;57944;48.722;9.316;2022-09-20T04:26:00;12.73;;;5.47;;
2784;SDS011;57944;48.722;9.316;2022-09-20T04:28:33;14.00;;;5.43;;
2784;SDS011;57944;48.722;9.316;2022-09-20T04:31:16;10.63;;;5.63;;
2784;SDS011;57944;48.722;9.316;2022-09-20T04:34:09;7.80;;;5.07;;
2784;SDS011;57944;48.722;9.316;2022-09-20T04:36:54;8.90;;;5.30;;
2784;SDS011;57944;48.722;9.316;2022-09-20T04:39:27;11.37;;;7.30;;
2784;SDS011;57944;48.722;9.316;2022-09-20T04:42:26;10.57;;;5.20;;
2784;SDS011;57944;48.722;9.316;2022-09-20T04:45:32;10.13;;;6.13;;
2784;SDS011;57944;48.722;9.316;2022-09-20T04:48:42;17.00;;;5.77;;
2784;SDS011;57944;48.722;9.316;2022-09-20T04:52:02;10.30;;;5.40;;
2784;SDS011;57944;48.722;9.316;2022-09-20T04:55:14;16.00;;;6.20;;
2784;SDS011;57944;48.722;9.316;2022-09-20T04:58:30;9.17;;;5.63;;
2784;SDS011;57944;48.722;9.316;2022-09-20T05:04:53;13.30;;;6.43;;
2784;SDS011;57944;48.722;9.316;2022-09-20T05:08:00;9.40;;;6.23;;
2784;SDS011;57944;48.722;9.316;2022-09-20T05:11:11;8.07;;;5.50;;
2784;SDS011;57944;48.722;9.316;2022-09-20T05:17:43;8.03;;;5.50;;
2784;SDS011;57944;48.722;9.316;2022-09-20T05:21:07;14.10;;;7.00;;
2784;SDS011;57944;48.722;9.316;2022-09-20T05:24:17;9.77;;;5.73;;
2784;SDS011;57944;48.722;9.316;2022-09-20T05:27:09;8.03;;;5.93;;
2784;SDS011;57944;48.722;9.316;2022-09-20T05:30:02;15.43;;;7.03;;
2784;SDS011;57944;48.722;9.316;2022-09-20T05:32:42;11.03;;;6.90;;
2784;SDS011;57944;48.722;9.316;2022-09-20T05:35:22;12.40;;;6.60;;
2784;SDS011;57944;48.722;9.316;2022-09-20T05:38:04;11.30;;;7.80;;
2784;SDS011;57944;48.722;9.316;2022-09-20T05:40:47;11.70;;;7.90;;
2784;SDS011;57944;48.722;9.316;2022-09-20T05:43:35;15.57;;;11.20;;
2784;SDS011;57944;48.722;9.316;2022-09-20T05:46:34;18.57;;;8.43;;
2784;SDS011;57944;48.722;9.316;2022-09-20T05:49:33;20.43;;;10.43;;
2784;SDS011;57944;48.722;9.316;2022-09-20T05:52:24;14.90;;;8.60;;
2784;SDS011;57944;48.722;9.316;2022-09-20T06:01:29;28.17;;;13.30;;
2784;SDS011;57944;48.722;9.316;2022-09-20T06:04:11;22.93;;;12.80;;
2784;SDS011;57944;48.722;9.316;2022-09-20T06:06:51;14.87;;;9.70;;
2784;SDS011;57944;48.722;9.316;2022-09-20T06:09:38;16.70;;;10.20;;
2784;SDS011;57944;48.722;9.316;2022-09-20T06:12:34;14.37;;;9.43;;
2784;SDS011;57944;48.722;9.316;2022-09-20T06:15:21;18.50;;;9.27;;
2784;SDS011;57944;48.722;9.316;2022-09-20T06:18:04;18.50;;;9.00;;
2784;SDS011;57944;48.722;9.316;2022-09-20T06:20:53;12.70;;;7.53;;
2784;SDS011;57944;48.722;9.316;2022-09-20T06:23:39;10.60;;;7.63;;
2784;SDS011;57944;48.722;9.316;2022-09-20T06:26:09;12.47;;;7.87;;
2784;SDS011;57944;48.722;9.316;2022-09-20T06:28:52;16.60;;;8.87;;
2784;SDS011;57944;48.722;9.316;2022-09-20T06:31:30;10.37;;;7.83;;
2784;SDS011;57944;48.722;9.316;2022-09-20T06:34:02;16.07;;;6.80;;
2784;SDS011;57944;48.722;9.316;2022-09-20T06:36:36;7.90;;;6.10;;
2784;SDS011;57944;48.722;9.316;2022-09-20T06:39:29;14.07;;;7.33;;
2784;SDS011;57944;48.722;9.316;2022-09-20T06:42:19;8.47;;;5.53;;
2784;SDS011;57944;48.722;9.316;2022-09-20T06:44:55;13.10;;;7.17;;
2784;SDS011;57944;48.722;9.316;2022-09-20T06:47:25;12.17;;;7.43;;
2784;SDS011;57944;48.722;9.316;2022-09-20T06:49:55;14.53;;;7.10;;
2784;SDS011;57944;48.722;9.316;2022-09-20T06:52:25;10.00;;;7.17;;
2784;SDS011;57944;48.722;9.316;2022-09-20T06:54:55;12.50;;;7.40;;
2784;SDS011;57944;48.722;9.316;2022-09-20T06:57:26;15.60;;;8.07;;
2784;SDS011;57944;48.722;9.316;2022-09-20T07:00:05;12.00;;;7.50;;
2784;SDS011;57944;48.722;9.316;2022-09-20T07:02:38;12.70;;;6.87;;
2784;SDS011;57944;48.722;9.316;2022-09-20T07:05:10;12.43;;;7.53;;
2784;SDS011;57944;48.722;9.316;2022-09-20T07:07:43;10.93;;;7.43;;
2784;SDS011;57944;48.722;9.316;2022-09-20T07:10:13;16.93;;;6.73;;
2784;SDS011;57944;48.722;9.316;2022-09-20T07:12:43;7.80;;;5.90;;
2784;SDS011;57944;48.722;9.316;2022-09-20T07:15:16;7.67;;;5.60;;
2784;SDS011;57944;48.722;9.316;2022-09-20T07:17:48;10.70;;;5.70;;
2784;SDS011;57944;48.722;9.316;2022-09-20T07:20:18;6.80;;;5.47;;
2784;SDS011;57944;48.722;9.316;2022-09-20T07:22:48;9.03;;;5.70;;
2784;SDS011;57944;48.722;9.316;2022-09-20T07:25:19;9.30;;;5.07;;
2784;SDS011;57944;48.722;9.316;2022-09-20T07:27:50;6.33;;;4.53;;
2784;SDS011;57944;48.722;9.316;2022-09-20T07:30:23;9.43;;;5.10;;
2784;SDS011;57944;48.722;9.316;2022-09-20T07:32:53;9.27;;;5.17;;
2784;SDS011;57944;48.722;9.316;2022-09-20T07:35:23;9.33;;;6.20;;
2784;SDS011;57944;48.722;9.316;2022-09-20T07:37:56;8.20;;;5.90;;
2784;SDS011;57944;48.722;9.316;2022-09-20T07:40:27;11.73;;;6.43;;
2784;SDS011;57944;48.722;9.316;2022-09-20T07:42:57;9.63;;;7.03;;
2784;SDS011;57944;48.722;9.316;2022-09-20T07:45:30;13.50;;;5.83;;
2784;SDS011;57944;48.722;9.316;2022-09-20T07:48:01;13.73;;;7.10;;
2784;SDS011;57944;48.722;9.316;2022-09-20T07:50:32;10.00;;;5.60;;
2784;SDS011;57944;48.722;9.316;2022-09-20T07:53:02;9.30;;;6.90;;
2784;SDS011;57944;48.722;9.316;2022-09-20T07:55:32;9.87;;;6.03;;
2784;SDS011;57944;48.722;9.316;2022-09-20T07:58:02;11.00;;;6.37;;
2784;SDS011;57944;48.722;9.316;2022-09-20T08:00:35;8.17;;;5.57;;
2784;SDS011;57944;48.722;9.316;2022-09-20T08:03:05;14.57;;;6.00;;
2784;SDS011;57944;48.722;9.316;2022-09-20T08:05:35;10.57;;;5.90;;
2784;SDS011;57944;48.722;9.316;2022-09-20T08:08:05;10.30;;;5.50;;
2784;SDS011;57944;48.722;9.316;2022-09-20T08:10:35;8.30;;;5.10;;
2784;SDS011;57944;48.722;9.316;2022-09-20T08:13:06;7.47;;;4.43;;
2784;SDS011;57944;48.722;9.316;2022-09-20T08:16:02;8.70;;;4.53;;
2784;SDS011;57944;48.722;9.316;2022-09-20T08:18:35;9.20;;;4.50;;
2784;SDS011;57944;48.722;9.316;2022-09-20T08:21:06;9.13;;;3.97;;
2784;SDS011;57944;48.722;9.316;2022-09-20T08:23:39;8.00;;;4.50;;
2784;SDS011;57944;48.722;9.316;2022-09-20T08:26:13;9.23;;;4.60;;
2784;SDS011;57944;48.722;9.316;2022-09-20T08:28:49;7.30;;;4.40;;
2784;SDS011;57944;48.722;9.316;2022-09-20T08:31:24;9.03;;;4.00;;
2784;SDS011;57944;48.722;9.316;2022-09-20T08:34:01;12.13;;;4.03;;
2784;SDS011;57944;48.722;9.316;2022-09-20T08:36:32;6.77;;;3.23;;
2784;SDS011;57944;48.722;9.316;2022-09-20T08:39:07;6.50;;;2.83;;
2784;SDS011;57944;48.722;9.316;2022-09-20T08:42:00;5.60;;;2.77;;
2784;SDS011;57944;48.722;9.316;2022-09-20T08:44:46;9.50;;;3.37;;
2784;SDS011;57944;48.722;9.316;2022-09-20T08:47:27;13.70;;;4.00;;
2784;SDS011;57944;48.722;9.316;2022-09-20T08:50:03;11.07;;;3.23;;
2784;SDS011;57944;48.722;9.316;2022-09-20T08:52:37;7.43;;;2.90;;
2784;SDS011;57944;48.722;9.316;2022-09-20T08:55:11;6.37;;;2.73;;
2784;SDS011;57944;48.722;9.316;2022-09-20T08:57:46;8.10;;;2.90;;
2784;SDS011;57944;48.722;9.316;2022-09-20T09:00:21;6.63;;;2.53;;
2784;SDS011;57944;48.722;9.316;2022-09-20T09:02:59;11.13;;;2.70;;
2784;SDS011;57944;48.722;9.316;2022-09-20T09:05:35;8.80;;;2.23;;
2784;SDS011;57944;48.722;9.316;2022-09-20T09:08:12;8.00;;;3.17;;
2784;SDS011;57944;48.722;9.316;2022-09-20T09:10:47;5.97;;;3.70;;
2784;SDS011;57944;48.722;9.316;2022-09-20T09:13:24;5.80;;;2.40;;
2784;SDS011;57944;48.722;9.316;2022-09-20T09:16:01;8.10;;;2.47;;
2784;SDS011;57944;48.722;9.316;2022-09-20T09:18:43;6.20;;;2.40;;
2784;SDS011;57944;48.722;9.316;2022-09-20T09:21:16;9.30;;;2.30;;
2784;SDS011;57944;48.722;9.316;2022-09-20T09:23:50;6.60;;;2.00;;
2784;SDS011;57944;48.722;9.316;2022-09-20T09:26:26;4.23;;;2.27;;
2784;SDS011;57944;48.722;9.316;2022-09-20T09:29:07;7.83;;;2.40;;
2784;SDS011;57944;48.722;9.316;2022-09-20T09:31:46;5.40;;;2.60;;
2784;SDS011;57944;48.722;9.316;2022-09-20T09:34:26;9.30;;;2.70;;
2784;SDS011;57944;48.722;9.316;2022-09-20T09:36:58;8.40;;;2.40;;
2784;SDS011;57944;48.722;9.316;2022-09-20T09:39:29;10.33;;;3.10;;
2784;SDS011;57944;48.722;9.316;2022-09-20T09:42:18;10.30;;;2.57;;
2784;SDS011;57944;48.722;9.316;2022-09-20T09:44:49;9.77;;;3.23;;
2784;SDS011;57944;48.722;9.316;2022-09-20T09:47:21;7.80;;;2.23;;
2784;SDS011;57944;48.722;9.316;2022-09-20T09:49:59;5.77;;;2.33;;
2784;SDS011;57944;48.722;9.316;2022-09-20T09:52:35;10.60;;;3.20;;
2784;SDS011;57944;48.722;9.316;2022-09-20T09:55:05;11.53;;;2.90;;
2784;SDS011;57944;48.722;9.316;2022-09-20T09:57:43;7.77;;;3.43;;
2784;SDS011;57944;48.722;9.316;2022-09-20T10:00:24;5.83;;;2.30;;
2784;SDS011;57944;48.722;9.316;2022-09-20T10:03:06;8.93;;;2.70;;
2784;SDS011;57944;48.722;9.316;2022-09-20T10:06:03;5.20;;;2.40;;
2784;SDS011;57944;48.722;9.316;2022-09-20T10:08:47;6.10;;;2.60;;
2784;SDS011;57944;48.722;9.316;2022-09-20T10:11:42;5.90;;;2.40;;
2784;SDS011;57944;48.722;9.316;2022-09-20T10:14:39;9.77;;;2.60;;
2784;SDS011;57944;48.722;9.316;2022-09-20T10:17:31;8.07;;;2.57;;
2784;SDS011;57944;48.722;9.316;2022-09-20T10:20:25;4.73;;;2.53;;
2784;SDS011;57944;48.722;9.316;2022-09-20T10:23:31;11.60;;;2.53;;
2784;SDS011;57944;48.722;9.316;2022-09-20T10:26:38;6.40;;;2.77;;
2784;SDS011;57944;48.722;9.316;2022-09-20T10:29:29;15.47;;;2.57;;
2784;SDS011;57944;48.722;9.316;2022-09-20T10:32:24;5.70;;;2.30;;
2784;SDS011;57944;48.722;9.316;2022-09-20T10:35:13;6.57;;;2.13;;
2784;SDS011;57944;48.722;9.316;2022-09-20T10:38:05;11.33;;;2.97;;
2784;SDS011;57944;48.722;9.316;2022-09-20T10:40:53;9.97;;;5.47;;
2784;SDS011;57944;48.722;9.316;2022-09-20T10:44:01;6.50;;;2.50;;
2784;SDS011;57944;48.722;9.316;2022-09-20T10:47:07;6.90;;;2.50;;
2784;SDS011;57944;48.722;9.316;2022-09-20T10:49:48;7.37;;;2.90;;
2784;SDS011;57944;48.722;9.316;2022-09-20T10:52:35;13.37;;;3.00;;
2784;SDS011;57944;48.722;9.316;2022-09-20T10:55:30;7.60;;;2.60;;
2784;SDS011;57944;48.722;9.316;2022-09-20T10:58:15;3.80;;;1.97;;
2784;SDS011;57944;48.722;9.316;2022-09-20T11:01:09;7.97;;;2.07;;
2784;SDS011;57944;48.722;9.316;2022-09-20T11:03:54;9.60;;;2.87;;
2784;SDS011;57944;48.722;9.316;2022-09-20T11:07:00;6.67;;;2.30;;
2784;SDS011;57944;48.722;9.316;2022-09-20T11:09:41;7.87;;;3.63;;
2784;SDS011;57944;48.722;9.316;2022-09-20T11:12:20;8.73;;;2.60;;
2784;SDS011;57944;48.722;9.316;2022-09-20T11:15:01;5.27;;;2.00;;
2784;SDS011;57944;48.722;9.316;2022-09-20T11:17:44;7.33;;;2.60;;
2784;SDS011;57944;48.722;9.316;2022-09-20T11:20:27;6.23;;;2.63;;
2784;SDS011;57944;48.722;9.316;2022-09-20T11:23:04;6.70;;;2.03;;
2784;SDS011;57944;48.722;9.316;2022-09-20T11:25:42;8.27;;;2.50;;
2784;SDS011;57944;48.722;9.316;2022-09-20T11:28:18;5.27;;;1.83;;
2784;SDS011;57944;48.722;9.316;2022-09-20T11:31:00;7.17;;;2.67;;
2784;SDS011;57944;48.722;9.316;2022-09-20T11:33:39;4.33;;;2.10;;
2784;SDS011;57944;48.722;9.316;2022-09-20T11:36:18;6.80;;;1.90;;
2784;SDS011;57944;48.722;9.316;2022-09-20T11:38:59;9.83;;;1.97;;
2784;SDS011;57944;48.722;9.316;2022-09-20T11:41:39;6.57;;;2.07;;
2784;SDS011;57944;48.722;9.316;2022-09-20T11:44:11;6.03;;;2.10;;
2784;SDS011;57944;48.722;9.316;2022-09-20T11:46:51;6.30;;;1.90;;
2784;SDS011;57944;48.722;9.316;2022-09-20T11:49:28;7.60;;;1.80;;
2784;SDS011;57944;48.722;9.316;2022-09-20T11:52:15;8.83;;;2.40;;
2784;SDS011;57944;48.722;9.316;2022-09-20T11:58:11;4.10;;;2.37;;
2784;SDS011;57944;48.722;9.316;2022-09-20T12:00:44;5.60;;;2.00;;
2784;SDS011;57944;48.722;9.316;2022-09-20T12:03:24;7.90;;;2.10;;
2784;SDS011;57944;48.722;9.316;2022-09-20T12:06:03;7.70;;;2.33;;
2784;SDS011;57944;48.722;9.316;2022-09-20T12:08:49;5.20;;;2.33;;
2784;SDS011;57944;48.722;9.316;2022-09-20T12:11:25;4.67;;;2.03;;
2784;SDS011;57944;48.722;9.316;2022-09-20T12:14:02;7.73;;;2.10;;
2784;SDS011;57944;48.722;9.316;2022-09-20T12:16:36;7.03;;;2.40;;
2784;SDS011;57944;48.722;9.316;2022-09-20T12:19:12;4.73;;;1.63;;
2784;SDS011;57944;48.722;9.316;2022-09-20T12:22:15;3.50;;;1.77;;
2784;SDS011;57944;48.722;9.316;2022-09-20T12:28:10;6.23;;;2.43;;
2784;SDS011;57944;48.722;9.316;2022-09-20T12:30:43;5.10;;;2.20;;
2784;SDS011;57944;48.722;9.316;2022-09-20T12:33:19;6.80;;;1.50;;
2784;SDS011;57944;48.722;9.316;2022-09-20T12:35:56;5.27;;;1.90;;
2784;SDS011;57944;48.722;9.316;2022-09-20T12:38:56;4.33;;;1.80;;
2784;SDS011;57944;48.722;9.316;2022-09-20T12:41:46;5.90;;;1.83;;
2784;SDS011;57944;48.722;9.316;2022-09-20T12:44:25;6.80;;;1.60;;
2784;SDS011;57944;48.722;9.316;2022-09-20T12:47:01;4.17;;;2.17;;
2784;SDS011;57944;48.722;9.316;2022-09-20T12:49:35;3.17;;;1.80;;
2784;SDS011;57944;48.722;9.316;2022-09-20T12:52:35;5.80;;;1.83;;
2784;SDS011;57944;48.722;9.316;2022-09-20T12:55:31;5.37;;;2.17;;
2784;SDS011;57944;48.722;9.316;2022-09-20T12:58:18;6.13;;;2.20;;
2784;SDS011;57944;48.722;9.316;2022-09-20T13:10:28;4.33;;;1.90;;
2784;SDS011;57944;48.722;9.316;2022-09-20T13:13:10;7.67;;;1.97;;
2784;SDS011;57944;48.722;9.316;2022-09-20T13:15:55;5.43;;;1.97;;
2784;SDS011;57944;48.722;9.316;2022-09-20T13:18:26;5.90;;;2.70;;
2784;SDS011;57944;48.722;9.316;2022-09-20T13:20:57;11.43;;;2.50;;
2784;SDS011;57944;48.722;9.316;2022-09-20T13:23:36;10.57;;;2.00;;
2784;SDS011;57944;48.722;9.316;2022-09-20T13:26:17;5.00;;;1.80;;
2784;SDS011;57944;48.722;9.316;2022-09-20T13:28:56;8.03;;;2.33;;
2784;SDS011;57944;48.722;9.316;2022-09-20T13:31:28;6.33;;;2.67;;
2784;SDS011;57944;48.722;9.316;2022-09-20T13:36:58;6.60;;;2.00;;
2784;SDS011;57944;48.722;9.316;2022-09-20T13:39:34;5.90;;;2.00;;
2784;SDS011;57944;48.722;9.316;2022-09-20T13:42:07;6.43;;;2.07;;
2784;SDS011;57944;48.722;9.316;2022-09-20T13:44:45;7.80;;;2.50;;
2784;SDS011;57944;48.722;9.316;2022-09-20T13:47:21;6.37;;;2.00;;
2784;SDS011;57944;48.722;9.316;2022-09-20T13:49:58;3.23;;;1.53;;
2784;SDS011;57944;48.722;9.316;2022-09-20T13:52:30;6.30;;;2.17;;
2784;SDS011;57944;48.722;9.316;2022-09-20T13:58:00;5.23;;;2.63;;
2784;SDS011;57944;48.722;9.316;2022-09-20T14:00:36;7.33;;;2.10;;
2784;SDS011;57944;48.722;9.316;2022-09-20T14:03:15;5.10;;;1.93;;
2784;SDS011;57944;48.722;9.316;2022-09-20T14:05:49;6.50;;;2.90;;
2784;SDS011;57944;48.722;9.316;2022-09-20T14:08:24;4.37;;;2.33;;
2784;SDS011;57944;48.722;9.316;2022-09-20T14:11:05;6.30;;;1.93;;
2784;SDS011;57944;48.722;9.316;2022-09-20T14:13:42;8.13;;;2.20;;
2784;SDS011;57944;48.722;9.316;2022-09-20T14:16:16;5.93;;;2.80;;
2784;SDS011;57944;48.722;9.316;2022-09-20T14:18:48;6.10;;;2.60;;
2784;SDS011;57944;48.722;9.316;2022-09-20T14:21:19;8.03;;;2.50;;
2784;SDS011;57944;48.722;9.316;2022-09-20T14:23:53;5.80;;;2.20;;
2784;SDS011;57944;48.722;9.316;2022-09-20T14:26:30;7.17;;;2.97;;
2784;SDS011;57944;48.722;9.316;2022-09-20T14:31:58;8.30;;;2.43;;
2784;SDS011;57944;48.722;9.316;2022-09-20T14:34:35;7.50;;;2.53;;
2784;SDS011;57944;48.722;9.316;2022-09-20T14:37:08;11.30;;;3.57;;
2784;SDS011;57944;48.722;9.316;2022-09-20T14:39:45;8.30;;;3.03;;
2784;SDS011;57944;48.722;9.316;2022-09-20T14:42:21;7.47;;;2.53;;
2784;SDS011;57944;48.722;9.316;2022-09-20T14:44:59;8.10;;;3.20;;
2784;SDS011;57944;48.722;9.316;2022-09-20T14:47:35;5.63;;;2.70;;
2784;SDS011;57944;48.722;9.316;2022-09-20T14:50:21;5.00;;;2.60;;
2784;SDS011;57944;48.722;9.316;2022-09-20T14:53:13;7.07;;;2.60;;
2784;SDS011;57944;48.722;9.316;2022-09-20T14:55:56;4.20;;;2.17;;
2784;SDS011;57944;48.722;9.316;2022-09-20T15:01:53;6.17;;;3.50;;
2784;SDS011;57944;48.722;9.316;2022-09-20T15:04:30;9.63;;;2.60;;
2784;SDS011;57944;48.722;9.316;2022-09-20T15:07:03;4.07;;;2.50;;
2784;SDS011;57944;48.722;9.316;2022-09-20T15:09:37;6.33;;;2.33;;
2784;SDS011;57944;48.722;9.316;2022-09-20T15:12:10;4.80;;;2.80;;
2784;SDS011;57944;48.722;9.316;2022-09-20T15:14:47;6.43;;;2.60;;
2784;SDS011;57944;48.722;9.316;2022-09-20T15:17:18;8.33;;;3.20;;
2784;SDS011;57944;48.722;9.316;2022-09-20T15:19:49;5.53;;;3.13;;
2784;SDS011;57944;48.722;9.316;2022-09-20T15:22:19;6.63;;;3.83;;
2784;SDS011;57944;48.722;9.316;2022-09-20T15:24:50;4.00;;;2.70;;
2784;SDS011;57944;48.722;9.316;2022-09-20T15:27:20;5.27;;;2.70;;
2784;SDS011;57944;48.722;9.316;2022-09-20T15:29:56;10.93;;;3.27;;
2784;SDS011;57944;48.722;9.316;2022-09-20T15:32:26;4.50;;;2.50;;
2784;SDS011;57944;48.722;9.316;2022-09-20T15:34:56;7.60;;;2.97;;
2784;SDS011;57944;48.722;9.316;2022-09-20T15:37:26;5.80;;;3.30;;
2784;SDS011;57944;48.722;9.316;2022-09-20T15:39:56;5.80;;;3.50;;
2784;SDS011;57944;48.722;9.316;2022-09-20T15:42:27;5.27;;;2.63;;
2784;SDS011;57944;48.722;9.316;2022-09-20T15:45:00;4.87;;;2.63;;
2784;SDS011;57944;48.722;9.316;2022-09-20T15:47:30;4.27;;;2.60;;
2784;SDS011;57944;48.722;9.316;2022-09-20T15:50:00;6.50;;;2.70;;
2784;SDS011;57944;48.722;9.316;2022-09-20T15:52:32;6.77;;;3.03;;
2784;SDS011;57944;48.722;9.316;2022-09-20T15:55:06;4.30;;;3.00;;
2784;SDS011;57944;48.722;9.316;2022-09-20T15:57:37;6.00;;;2.83;;
2784;SDS011;57944;48.722;9.316;2022-09-20T16:00:10;7.00;;;3.30;;
2784;SDS011;57944;48.722;9.316;2022-09-20T16:02:43;6.00;;;3.40;;
2784;SDS011;57944;48.722;9.316;2022-09-20T16:05:16;5.90;;;3.00;;
2784;SDS011;57944;48.722;9.316;2022-09-20T16:07:47;5.77;;;3.17;;
2784;SDS011;57944;48.722;9.316;2022-09-20T16:10:17;6.30;;;2.63;;
2784;SDS011;57944;48.722;9.316;2022-09-20T16:12:47;4.00;;;2.87;;
2784;SDS011;57944;48.722;9.316;2022-09-20T16:15:19;3.90;;;3.00;;
2784;SDS011;57944;48.722;9.316;2022-09-20T16:17:49;4.97;;;3.30;;
2784;SDS011;57944;48.722;9.316;2022-09-20T16:20:32;5.27;;;2.63;;
2784;SDS011;57944;48.722;9.316;2022-09-20T16:23:02;5.03;;;2.80;;
2784;SDS011;57944;48.722;9.316;2022-09-20T16:25:32;4.77;;;2.17;;
2784;SDS011;57944;48.722;9.316;2022-09-20T16:28:02;7.03;;;2.13;;
2784;SDS011;57944;48.722;9.316;2022-09-20T16:30:35;4.27;;;2.13;;
2784;SDS011;57944;48.722;9.316;2022-09-20T16:33:05;8.60;;;2.80;;
2784;SDS011;57944;48.722;9.316;2022-09-20T16:35:37;7.07;;;2.97;;
2784;SDS011;57944;48.722;9.316;2022-09-20T16:38:07;8.60;;;2.27;;
2784;SDS011;57944;48.722;9.316;2022-09-20T16:40:38;3.97;;;2.13;;
2784;SDS011;57944;48.722;9.316;2022-09-20T16:43:08;4.70;;;2.07;;
2784;SDS011;57944;48.722;9.316;2022-09-20T16:45:40;4.80;;;2.30;;
2784;SDS011;57944;48.722;9.316;2022-09-20T16:48:10;8.80;;;2.80;;
2784;SDS011;57944;48.722;9.316;2022-09-20T16:50:40;14.63;;;2.00;;
2784;SDS011;57944;48.722;9.316;2022-09-20T16:53:12;5.00;;;3.20;;
2784;SDS011;57944;48.722;9.316;2022-09-20T16:55:42;4.13;;;2.10;;
2784;SDS011;57944;48.722;9.316;2022-09-20T16:58:13;4.80;;;2.30;;
2784;SDS011;57944;48.722;9.316;2022-09-20T17:00:45;3.47;;;2.10;;
2784;SDS011;57944;48.722;9.316;2022-09-20T17:03:15;3.90;;;2.57;;
2784;SDS011;57944;48.722;9.316;2022-09-20T17:05:47;8.53;;;4.33;;
2784;SDS011;57944;48.722;9.316;2022-09-20T17:08:17;5.93;;;2.80;;
2784;SDS011;57944;48.722;9.316;2022-09-20T17:10:47;5.70;;;3.17;;
2784;SDS011;57944;48.722;9.316;2022-09-20T17:13:17;6.33;;;2.60;;
2784;SDS011;57944;48.722;9.316;2022-09-20T17:15:50;5.87;;;2.77;;
2784;SDS011;57944;48.722;9.316;2022-09-20T17:18:29;6.07;;;3.50;;